Powell River, British Columbia

Past 24 Hour Conditions

This table is a summary of hourly weather conditions for the past 24 hours. This summary includes the following parameters: temperature, humidity, dew point, wind speed and direction, air pressure, visibility and/or wind chill and humidex.
Date / Time
(PDT)
Conditions Temp (°F) Humidity (%) Dew Point (°F) Wind (mph) Pressure (inches) Vis (mi) Humidex
29 July 2014
2:00 N/A 58 87 54 N/A 30.1 N/A *
1:00 N/A 59 85 55 N/A 30.1 N/A *
00:00 N/A 65 70 55 N/A 30.1 N/A *
28 July 2014
23:00 N/A 64 82 59 N/A 30.1 N/A *
22:00 N/A 68 76 60 N/A 30.1 N/A *
21:00 N/A 72 58 57 N/A 30.1 N/A 78
20:00 N/A 78 47 57 N/A 30.0 N/A 84
19:00 N/A 76 62 62 N/A 30.1 N/A 85
18:00 N/A 82 35 52 N/A 30.1 N/A 85
17:00 N/A 83   36 53 N/A 30.1 N/A 86
16:00 N/A 80 41 54 N/A 30.1 N/A 84
15:00 N/A 80 39 53 N/A 30.1 N/A 84
14:00 N/A 74 59 59 N/A 30.1 N/A 81
13:00 N/A 74 57 58 N/A 30.1 N/A 80
12:00 N/A 71 65 59 N/A 30.1 N/A 78
11:00 N/A 69 68 58 N/A 30.1 N/A *
10:00 N/A 68 72 59 N/A 30.1 N/A *
9:00 N/A 68 72 59 N/A 30.1 N/A *
8:00 N/A 65 76 58 N/A 30.2 N/A *
7:00 N/A 60 95 59 N/A 30.2 N/A *
6:00 N/A 54   95 53 N/A 30.1 N/A *
5:00 N/A 55 95 54 N/A 30.1 N/A *
4:00 N/A 58 94 56 N/A 30.1 N/A *
3:00 N/A 57 92 54 N/A 30.1 N/A *
2:00 N/A 56 91 54 N/A 30.1 N/A *
N/A
Not available
 ↑ 
Highest temperature
 ↓ 
Lowest temperature
*
Value not significant.

If you require additional historical weather information, please visit Climate Data Online.